ASI232 EVRA-LKTB
Flight info
| Callsign | ASI232 |
|---|---|
| Flight time | N/A |
| Altitude | 34000 |
| Route | BERIL DCT UBORU/N0442F330 DCT ORZIK DCT BOKSU/N0442F340 M985 KOTEK DCT UPLAV |
| Aircraft | A306/H-SDE3FGHIRWY/LB1 |
Departure
| Time | 2026-04-29 17:30 |
|---|---|
| Airport | Riga International Airport (EVRA) |
Arrival
| Time | N/A |
|---|---|
| Airport | Brno-Tuřany Airport (LKTB) |
| Time | Latitude | Longitude | Altitude | Speed | Heading |
|---|---|---|---|---|---|
| 2026-04-29 17:18 | 56.92419 | 23.97711 | 42 ft | 0 kts | 1° |
| 2026-04-29 17:23 | 56.92404 | 23.97711 | 42 ft | 3 kts | 332° |
| 2026-04-29 17:23 | 56.92392 | 23.97732 | 40 ft | 2 kts | 294° |
| 2026-04-29 17:23 | 56.92390 | 23.97738 | 39 ft | 0 kts | 280° |
| 2026-04-29 17:25 | 56.92354 | 23.97521 | 43 ft | 28 kts | 213° |
| 2026-04-29 17:25 | 56.92169 | 23.97466 | 43 ft | 26 kts | 186° |
| 2026-04-29 17:26 | 56.91992 | 23.97442 | 43 ft | 25 kts | 183° |
| 2026-04-29 17:26 | 56.91827 | 23.97420 | 43 ft | 22 kts | 184° |
| 2026-04-29 17:26 | 56.91686 | 23.97397 | 43 ft | 18 kts | 183° |
| 2026-04-29 17:26 | 56.91564 | 23.97380 | 44 ft | 17 kts | 185° |
| 2026-04-29 17:27 | 56.91449 | 23.97360 | 44 ft | 16 kts | 185° |
| 2026-04-29 17:27 | 56.91341 | 23.97340 | 44 ft | 15 kts | 186° |
| 2026-04-29 17:27 | 56.91240 | 23.97322 | 44 ft | 14 kts | 186° |
| 2026-04-29 17:27 | 56.91145 | 23.97305 | 44 ft | 13 kts | 185° |
| 2026-04-29 17:28 | 56.91057 | 23.97291 | 44 ft | 12 kts | 185° |
| 2026-04-29 17:28 | 56.90987 | 23.97252 | 44 ft | 10 kts | 211° |
| 2026-04-29 17:28 | 56.90897 | 23.97184 | 45 ft | 19 kts | 194° |
| 2026-04-29 17:28 | 56.90740 | 23.97138 | 45 ft | 26 kts | 194° |
| 2026-04-29 17:29 | 56.90645 | 23.96948 | 44 ft | 15 kts | 287° |
| 2026-04-29 17:29 | 56.90725 | 23.96859 | 43 ft | 13 kts | 350° |
| 2026-04-29 17:29 | 56.90738 | 23.96857 | 43 ft | 0 kts | 356° |
| 2026-04-29 17:30 | 56.90907 | 23.96877 | 43 ft | 64 kts | 5° |
| 2026-04-29 17:30 | 56.91620 | 23.96967 | 45 ft | 140 kts | 6° |
| 2026-04-29 17:30 | 56.92801 | 23.97161 | 374 ft | 190 kts | 3° |
| 2026-04-29 17:30 | 56.94105 | 23.97196 | 796 ft | 187 kts | 358° |
| 2026-04-29 17:31 | 56.95405 | 23.97128 | 1069 ft | 189 kts | 2° |
| 2026-04-29 17:31 | 56.98969 | 23.97996 | 4046 ft | 189 kts | 4° |
| 2026-04-29 17:31 | 57.04277 | 23.98971 | 9547 ft | 194 kts | 359° |
| 2026-04-29 17:31 | 57.08522 | 23.92983 | 13636 ft | 222 kts | 302° |
| 2026-04-29 17:32 | 57.10905 | 23.82046 | 16683 ft | 245 kts | 284° |
| 2026-04-29 17:32 | 57.09421 | 23.68984 | 19224 ft | 274 kts | 258° |
| 2026-04-29 17:32 | 57.03898 | 23.58094 | 21088 ft | 310 kts | 222° |
| 2026-04-29 17:32 | 56.96912 | 23.48046 | 22726 ft | 327 kts | 221° |
| 2026-04-29 17:33 | 56.89697 | 23.37958 | 24537 ft | 322 kts | 221° |
| 2026-04-29 17:33 | 56.82556 | 23.27995 | 25868 ft | 331 kts | 221° |
| 2026-04-29 17:33 | 56.74038 | 23.22541 | 27014 ft | 327 kts | 171° |
| 2026-04-29 17:33 | 56.64789 | 23.23632 | 28205 ft | 341 kts | 169° |
| 2026-04-29 17:34 | 56.55137 | 23.24786 | 29225 ft | 353 kts | 166° |
| 2026-04-29 17:34 | 56.46481 | 23.31512 | 30078 ft | 338 kts | 136° |
| 2026-04-29 17:34 | 56.37995 | 23.39419 | 30781 ft | 367 kts | 155° |
| 2026-04-29 17:34 | 56.27471 | 23.39811 | 31436 ft | 391 kts | 187° |
| 2026-04-29 17:35 | 56.09632 | 23.33527 | 32380 ft | 400 kts | 188° |
| 2026-04-29 17:35 | 55.95039 | 23.28602 | 33076 ft | 405 kts | 187° |
| 2026-04-29 17:35 | 55.83936 | 23.24879 | 33445 ft | 409 kts | 188° |
| 2026-04-29 17:36 | 55.72680 | 23.21124 | 33753 ft | 413 kts | 188° |
| 2026-04-29 17:36 | 55.61304 | 23.17353 | 33976 ft | 417 kts | 187° |
| 2026-04-29 17:36 | 55.49827 | 23.14562 | 33974 ft | 418 kts | 181° |
| 2026-04-29 17:37 | 55.26150 | 23.11068 | 33979 ft | 433 kts | 180° |
| 2026-04-29 17:37 | 55.01824 | 23.07528 | 33986 ft | 442 kts | 179° |
| 2026-04-29 17:38 | 54.77249 | 23.06996 | 33989 ft | 443 kts | 176° |
| 2026-04-29 17:38 | 54.52584 | 23.06416 | 33992 ft | 444 kts | 175° |
| 2026-04-29 17:39 | 54.27916 | 23.03945 | 34002 ft | 451 kts | 197° |
| 2026-04-29 17:39 | 54.21012 | 22.99556 | 33997 ft | 451 kts | 200° |
| 2026-04-29 17:40 | 54.15184 | 22.95572 | 34000 ft | 451 kts | 200° |
| 2026-04-29 17:40 | 54.09357 | 22.91625 | 34011 ft | 450 kts | 200° |
| 2026-04-29 17:41 | 54.03780 | 22.86776 | 34008 ft | 451 kts | 210° |
| 2026-04-29 17:41 | 53.98372 | 22.81378 | 33991 ft | 451 kts | 211° |
| 2026-04-29 17:42 | 53.92995 | 22.75898 | 34012 ft | 450 kts | 211° |
| 2026-04-29 17:42 | 53.87616 | 22.70440 | 33995 ft | 450 kts | 211° |
| 2026-04-29 17:43 | 53.82229 | 22.65013 | 34007 ft | 450 kts | 211° |
| 2026-04-29 17:43 | 53.76841 | 22.59613 | 34015 ft | 450 kts | 211° |
| 2026-04-29 17:44 | 53.71446 | 22.54224 | 33999 ft | 450 kts | 211° |
| 2026-04-29 17:44 | 53.66090 | 22.48887 | 34016 ft | 450 kts | 211° |
| 2026-04-29 17:45 | 53.60686 | 22.43518 | 34015 ft | 450 kts | 210° |
| 2026-04-29 17:45 | 53.55285 | 22.38169 | 34001 ft | 450 kts | 210° |
| 2026-04-29 17:46 | 53.49883 | 22.32834 | 34001 ft | 450 kts | 210° |